Time;durP1;ratioP1;P1;durP2;ratioP2;P2;SDS_P1;SDS_P2;PMS_P1;PMS_P2;Temp;Humidity;BMP_temperature;BMP_pressure;BME280_temperature;BME280_humidity;BME280_pressure;Samples;Min_cycle;Max_cycle;Signal;HPM_P1;HPM_P2
2022/11/18 00:00:07;;;;;;;0.50;0.50;;;;;7.10;94197.00;;;;5093344;28;20206;-56
2022/11/18 00:02:34;;;;;;;0.50;0.50;;;;;7.20;94202.00;;;;5093060;28;20267;-56
2022/11/18 00:05:00;;;;;;;0.50;0.50;;;;;7.20;94191.00;;;;5075546;28;20202;-57
2022/11/18 00:07:29;;;;;;;0.80;0.80;;;;;7.20;94194.00;;;;5093078;28;20218;-56
2022/11/18 00:09:56;;;;;;;0.50;0.50;;;;;7.20;94201.00;;;;5075224;28;20624;-56
2022/11/18 00:15:09;;;;;;;0.50;0.50;;;;;7.20;94206.00;;;;5092992;28;20678;-57
2022/11/18 00:17:35;;;;;;;0.50;0.50;;;;;7.20;94214.00;;;;5093147;28;20222;-58
2022/11/18 00:20:02;;;;;;;0.70;0.70;;;;;7.50;94214.00;;;;5093047;28;20608;-58
2022/11/18 00:22:29;;;;;;;0.50;0.50;;;;;7.40;94215.00;;;;5093072;28;20191;-57
2022/11/18 00:24:56;;;;;;;0.60;0.60;;;;;7.40;94218.00;;;;5092886;28;20654;-57
2022/11/18 00:27:23;;;;;;;0.67;0.67;;;;;7.10;94214.00;;;;5075168;28;20551;-58
2022/11/18 00:29:49;;;;;;;0.63;0.63;;;;;7.00;94212.00;;;;5075219;28;20237;-61
2022/11/18 00:32:17;;;;;;;0.60;0.60;;;;;6.90;94213.00;;;;5093031;28;20686;-60
2022/11/18 00:34:43;;;;;;;0.50;0.50;;;;;7.00;94214.00;;;;5093031;28;20218;-59
2022/11/18 00:37:10;;;;;;;0.90;0.90;;;;;7.00;94213.00;;;;5094330;28;20190;-61
2022/11/18 00:39:37;;;;;;;0.60;0.60;;;;;7.00;94209.00;;;;5096271;28;20218;-58
2022/11/18 00:44:49;;;;;;;0.60;0.60;;;;;7.20;94214.00;;;;5078439;28;20279;-59
2022/11/18 00:47:17;;;;;;;0.47;0.47;;;;;7.10;94213.00;;;;5096251;28;20700;-61
2022/11/18 00:49:43;;;;;;;0.50;0.50;;;;;6.80;94213.00;;;;5096245;28;20251;-57
2022/11/18 00:52:10;;;;;;;0.80;0.80;;;;;6.90;94208.00;;;;5078616;28;20235;-58
2022/11/18 00:54:37;;;;;;;0.60;0.60;;;;;6.90;94205.00;;;;5096184;28;20507;-58
2022/11/18 00:57:04;;;;;;;0.67;0.67;;;;;7.10;94210.00;;;;5096227;28;20194;-58
2022/11/18 00:59:31;;;;;;;0.80;0.80;;;;;7.10;94214.00;;;;5095915;28;20279;-57
2022/11/18 01:01:58;;;;;;;0.50;0.50;;;;;7.10;94206.00;;;;5095939;28;20320;-57
2022/11/18 01:04:25;;;;;;;0.70;0.70;;;;;7.10;94212.00;;;;5095827;28;20221;-58
2022/11/18 01:06:54;;;;;;;0.60;0.60;;;;;7.20;94212.00;;;;5077863;28;20588;-57
2022/11/18 01:09:21;;;;;;;0.80;0.80;;;;;7.20;94203.00;;;;5095667;28;20206;-55
2022/11/18 01:14:32;;;;;;;0.50;0.50;;;;;7.30;94199.00;;;;5095580;28;20229;-57
2022/11/18 01:16:59;;;;;;;0.50;0.50;;;;;7.20;94199.00;;;;5095790;28;20222;-58
2022/11/18 01:19:29;;;;;;;0.77;0.77;;;;;7.30;94208.00;;;;5095496;28;20210;-61
2022/11/18 01:21:58;;;;;;;0.50;0.50;;;;;7.30;94213.00;;;;5077953;28;20211;-57
2022/11/18 01:24:25;;;;;;;0.57;0.57;;;;;7.30;94209.00;;;;5095453;28;20195;-57
2022/11/18 01:26:52;;;;;;;0.60;0.60;;;;;7.20;94213.00;;;;5095582;28;20203;-57
2022/11/18 01:29:18;;;;;;;0.70;0.70;;;;;7.20;94220.00;;;;5095227;28;20689;-56
2022/11/18 01:31:45;;;;;;;0.60;0.60;;;;;7.20;94222.00;;;;5095256;28;20666;-55
2022/11/18 01:34:12;;;;;;;0.50;0.50;;;;;7.10;94222.00;;;;5095257;28;20507;-56
2022/11/18 01:36:39;;;;;;;0.60;0.60;;;;;7.10;94223.00;;;;5095274;28;20278;-56
2022/11/18 01:39:06;;;;;;;0.60;0.60;;;;;7.20;94218.00;;;;5095517;28;20195;-56
2022/11/18 01:41:33;;;;;;;0.60;0.60;;;;;7.10;94221.00;;;;5077419;28;20225;-56
2022/11/18 01:44:02;;;;;;;0.60;0.60;;;;;7.00;94229.00;;;;5095121;28;20222;-56
2022/11/18 01:46:31;;;;;;;0.40;0.40;;;;;7.00;94229.00;;;;5095087;28;20662;-57
2022/11/18 01:49:05;;;;;;;0.50;0.50;;;;;7.00;94193.00;;;;5076320;28;20200;-55
2022/11/18 01:51:38;;;;;;;0.63;0.63;;;;;7.00;94227.00;;;;5077676;28;20254;-56
2022/11/18 01:54:10;;;;;;;0.53;0.53;;;;;7.00;94231.00;;;;5077716;28;20238;-56
2022/11/18 01:56:42;;;;;;;0.60;0.60;;;;;7.10;94232.00;;;;5077746;28;20207;-58
2022/11/18 01:59:12;;;;;;;0.60;0.60;;;;;7.10;94232.00;;;;5078265;28;20245;-57
2022/11/18 02:01:40;;;;;;;0.70;0.70;;;;;7.20;94244.00;;;;5095575;28;20206;-56
2022/11/18 02:04:08;;;;;;;0.60;0.60;;;;;7.20;94238.00;;;;5094957;28;20430;-56
2022/11/18 02:06:36;;;;;;;0.60;0.60;;;;;7.10;94239.00;;;;5076858;28;20280;-56
2022/11/18 02:09:03;;;;;;;0.67;0.67;;;;;7.00;94237.00;;;;5094931;28;20645;-56
2022/11/18 02:11:50;;;;;;;0.43;0.43;;;;;7.00;94232.00;;;;5077069;28;20674;-56
2022/11/18 02:14:18;;;;;;;0.50;0.50;;;;;7.00;94232.00;;;;5094807;28;20206;-56
2022/11/18 02:17:02;;;;;;;0.73;0.73;;;;;7.00;94223.00;;;;5095826;28;20631;-56
2022/11/18 02:19:50;;;;;;;0.50;0.50;;;;;7.00;94229.00;;;;5094958;28;20213;-56
2022/11/18 02:22:33;;;;;;;0.63;0.63;;;;;7.00;94234.00;;;;5077536;28;20215;-56
2022/11/18 02:25:07;;;;;;;0.60;0.60;;;;;7.00;94240.00;;;;5076713;28;20226;-56
2022/11/18 02:27:57;;;;;;;0.90;0.90;;;;;7.00;94247.00;;;;5094861;28;20553;-57
2022/11/18 02:30:25;;;;;;;0.50;0.50;;;;;7.30;94254.00;;;;5091230;28;20238;-58
2022/11/18 02:32:56;;;;;;;0.60;0.60;;;;;7.30;94259.00;;;;5094848;28;20232;-56
2022/11/18 02:35:29;;;;;;;0.53;0.53;;;;;7.30;94258.00;;;;5094947;28;20276;-58
2022/11/18 02:38:00;;;;;;;0.50;0.50;;;;;7.20;94262.00;;;;5094654;28;20661;-57
2022/11/18 02:40:33;;;;;;;0.60;0.60;;;;;7.20;94275.00;;;;5094618;28;20222;-56
2022/11/18 02:43:05;;;;;;;0.70;0.70;;;;;7.30;94274.00;;;;5094356;28;20284;-57
2022/11/18 02:45:36;;;;;;;0.57;0.57;;;;;7.20;94274.00;;;;5076414;28;20654;-56
2022/11/18 02:48:07;;;;;;;0.60;0.60;;;;;7.30;94270.00;;;;5076291;28;20335;-56
2022/11/18 02:50:36;;;;;;;0.57;0.57;;;;;7.20;94274.00;;;;5093956;28;20186;-56
2022/11/18 02:53:05;;;;;;;0.60;0.60;;;;;7.10;94278.00;;;;5076411;28;20360;-59
2022/11/18 02:55:37;;;;;;;0.60;0.60;;;;;7.00;94273.00;;;;5093947;28;20225;-56
2022/11/18 02:58:05;;;;;;;0.63;0.63;;;;;6.80;94285.00;;;;5076075;28;20224;-57
2022/11/18 03:00:35;;;;;;;0.60;0.60;;;;;6.90;94283.00;;;;5093695;28;20522;-58
2022/11/18 03:03:24;;;;;;;0.80;0.80;;;;;6.70;94278.00;;;;5094221;28;20239;-57
2022/11/18 03:05:59;;;;;;;0.60;0.60;;;;;6.70;94287.00;;;;5076196;28;20661;-57
2022/11/18 03:08:31;;;;;;;0.50;0.50;;;;;6.70;94288.00;;;;5094052;28;20741;-57
2022/11/18 03:11:09;;;;;;;0.70;0.70;;;;;6.80;94293.00;;;;5093831;28;20186;-58
2022/11/18 03:13:44;;;;;;;0.50;0.50;;;;;6.70;94290.00;;;;5076383;28;20696;-56
2022/11/18 03:16:17;;;;;;;0.50;0.50;;;;;6.80;94297.00;;;;5094078;28;20218;-58
2022/11/18 03:18:52;;;;;;;0.60;0.60;;;;;6.80;94296.00;;;;5093728;28;20191;-55
2022/11/18 03:21:23;;;;;;;0.60;0.60;;;;;6.80;94296.00;;;;5093763;28;20221;-57
2022/11/18 03:23:58;;;;;;;0.50;0.50;;;;;6.80;94301.00;;;;5075937;28;20203;-56
2022/11/18 03:26:29;;;;;;;0.90;0.90;;;;;6.80;94304.00;;;;5093533;28;20229;-57
2022/11/18 03:29:04;;;;;;;0.50;0.50;;;;;6.90;94307.00;;;;5093715;28;20511;-56
2022/11/18 03:31:37;;;;;;;0.50;0.50;;;;;6.90;94307.00;;;;5093264;28;20257;-57
2022/11/18 03:34:08;;;;;;;0.60;0.60;;;;;6.90;94323.00;;;;5093605;28;20201;-58
2022/11/18 03:36:39;;;;;;;0.53;0.53;;;;;7.00;94329.00;;;;5093525;28;20623;-56
2022/11/18 03:39:10;;;;;;;0.60;0.60;;;;;7.10;94333.00;;;;5093287;28;20214;-56
2022/11/18 03:41:45;;;;;;;0.50;0.50;;;;;7.10;94337.00;;;;5093471;28;20686;-57
2022/11/18 03:44:16;;;;;;;0.50;0.50;;;;;7.00;94340.00;;;;5093307;28;20222;-55
2022/11/18 03:46:47;;;;;;;0.60;0.60;;;;;6.90;94338.00;;;;5093303;28;20201;-54
2022/11/18 03:49:18;;;;;;;0.50;0.50;;;;;6.70;94342.00;;;;5093303;28;20186;-57
2022/11/18 03:51:49;;;;;;;0.67;0.67;;;;;6.70;94350.00;;;;5093264;28;20669;-58
2022/11/18 03:54:21;;;;;;;0.50;0.50;;;;;6.80;94347.00;;;;5075557;28;20630;-57
2022/11/18 03:56:55;;;;;;;0.50;0.50;;;;;6.70;94347.00;;;;5093300;28;20225;-57
2022/11/18 03:59:26;;;;;;;0.60;0.60;;;;;6.60;94350.00;;;;5093335;28;20691;-58
2022/11/18 04:02:02;;;;;;;0.53;0.53;;;;;6.60;94353.00;;;;5093235;28;20197;-57
2022/11/18 04:04:29;;;;;;;0.53;0.53;;;;;6.70;94357.00;;;;5075352;28;20223;-58
2022/11/18 04:07:02;;;;;;;0.60;0.60;;;;;6.60;94355.00;;;;5093051;28;20189;-57
2022/11/18 04:09:34;;;;;;;0.50;0.50;;;;;6.40;94347.00;;;;5092964;28;20278;-58
2022/11/18 04:12:05;;;;;;;0.73;0.73;;;;;6.30;94353.00;;;;5094241;28;20220;-57
2022/11/18 04:14:33;;;;;;;0.50;0.50;;;;;6.40;94357.00;;;;5078807;28;20226;-57
2022/11/18 04:17:07;;;;;;;0.60;0.60;;;;;6.40;94353.00;;;;5096480;28;20195;-57
2022/11/18 04:19:34;;;;;;;0.60;0.60;;;;;6.40;94361.00;;;;5096680;28;20197;-57
2022/11/18 04:22:00;;;;;;;0.50;0.50;;;;;6.40;94355.00;;;;5078676;28;20202;-58
2022/11/18 04:24:27;;;;;;;0.57;0.57;;;;;6.50;94367.00;;;;5096399;28;20221;-57
2022/11/18 04:26:54;;;;;;;0.50;0.50;;;;;6.50;94363.00;;;;5096224;28;20226;-57
2022/11/18 04:29:21;;;;;;;0.53;0.53;;;;;6.60;94363.00;;;;5096360;28;20191;-57
2022/11/18 04:31:47;;;;;;;0.50;0.50;;;;;6.50;94372.00;;;;5096281;28;20219;-57
2022/11/18 04:34:15;;;;;;;0.50;0.50;;;;;6.60;94370.00;;;;5096034;28;20301;-57
2022/11/18 04:36:42;;;;;;;0.50;0.50;;;;;6.60;94377.00;;;;5078347;28;20517;-57
2022/11/18 04:39:08;;;;;;;0.83;0.83;;;;;6.50;94372.00;;;;5096093;28;20223;-57
2022/11/18 04:44:20;;;;;;;0.60;0.60;;;;;6.40;94376.00;;;;5096061;28;20229;-57
2022/11/18 04:46:47;;;;;;;0.60;0.60;;;;;6.40;94379.00;;;;5095905;28;20630;-57
2022/11/18 04:49:15;;;;;;;0.50;0.50;;;;;6.30;94376.00;;;;5095964;28;20205;-56
2022/11/18 04:51:43;;;;;;;0.50;0.50;;;;;6.10;94373.00;;;;5095799;28;20233;-58
2022/11/18 04:54:10;;;;;;;0.53;0.53;;;;;6.30;94377.00;;;;5095863;28;20511;-57
2022/11/18 04:56:38;;;;;;;0.53;0.53;;;;;6.40;94384.00;;;;5096035;28;20191;-57
2022/11/18 04:59:05;;;;;;;0.50;0.50;;;;;6.50;94387.00;;;;5095800;28;20282;-57
2022/11/18 05:01:32;;;;;;;0.50;0.50;;;;;6.40;94377.00;;;;5095788;28;20205;-57
2022/11/18 05:04:00;;;;;;;1.40;1.13;;;;;6.20;94384.00;;;;5095882;28;20228;-59
2022/11/18 05:06:28;;;;;;;0.50;0.50;;;;;6.10;94388.00;;;;5095808;28;20245;-59
2022/11/18 05:08:56;;;;;;;0.50;0.50;;;;;6.20;94386.00;;;;5095724;28;20212;-57
2022/11/18 05:14:11;;;;;;;0.60;0.60;;;;;6.30;94392.00;;;;5077975;28;20205;-59
2022/11/18 05:16:40;;;;;;;0.70;0.70;;;;;6.20;94389.00;;;;5077685;28;20230;-59
2022/11/18 05:19:07;;;;;;;0.50;0.50;;;;;6.30;94394.00;;;;5095537;28;20205;-57
2022/11/18 05:21:35;;;;;;;0.60;0.60;;;;;6.40;94394.00;;;;5077772;28;20584;-58
2022/11/18 05:24:03;;;;;;;0.60;0.60;;;;;6.40;94400.00;;;;5095720;28;20209;-57
2022/11/18 05:26:29;;;;;;;0.50;0.50;;;;;6.40;94399.00;;;;5095501;28;20219;-57
2022/11/18 05:28:57;;;;;;;0.80;0.80;;;;;6.20;94393.00;;;;5095349;28;20283;-57
2022/11/18 05:31:23;;;;;;;0.60;0.60;;;;;6.20;94402.00;;;;5095252;28;20254;-57
2022/11/18 05:33:52;;;;;;;0.60;0.60;;;;;6.20;94398.00;;;;5095377;28;20646;-57
2022/11/18 05:36:20;;;;;;;0.50;0.50;;;;;6.10;94423.00;;;;5095329;28;20199;-57
2022/11/18 05:38:48;;;;;;;0.50;0.50;;;;;6.20;94414.00;;;;5095183;28;20273;-58
2022/11/18 05:43:57;;;;;;;0.50;0.50;;;;;6.20;94412.00;;;;5076815;28;20524;-58
2022/11/18 05:46:26;;;;;;;0.53;0.53;;;;;6.20;94418.00;;;;5077303;28;20260;-62
2022/11/18 05:48:53;;;;;;;0.53;0.53;;;;;6.20;94424.00;;;;5078016;28;20642;-59
2022/11/18 05:51:20;;;;;;;0.50;0.50;;;;;6.20;94412.00;;;;5094992;28;20222;-60
2022/11/18 05:53:50;;;;;;;0.50;0.50;;;;;6.00;94423.00;;;;5094943;28;20703;-57
2022/11/18 05:56:21;;;;;;;0.40;0.40;;;;;6.20;94443.00;;;;5095105;28;20651;-57
2022/11/18 05:58:47;;;;;;;0.50;0.50;;;;;6.10;94432.00;;;;5094932;28;20206;-57
2022/11/18 06:01:18;;;;;;;0.50;0.50;;;;;6.10;94438.00;;;;5094838;28;20194;-57
2022/11/18 06:03:45;;;;;;;0.60;0.60;;;;;6.20;94436.00;;;;5076992;28;20203;-56
2022/11/18 06:06:15;;;;;;;0.50;0.50;;;;;6.00;94434.00;;;;5094531;28;20584;-57
2022/11/18 06:08:47;;;;;;;0.50;0.50;;;;;6.10;94444.00;;;;5094595;28;20225;-57
2022/11/18 06:11:18;;;;;;;0.60;0.60;;;;;6.20;94436.00;;;;5076808;28;20226;-57
2022/11/18 06:13:49;;;;;;;0.50;0.50;;;;;6.10;94434.00;;;;5094546;28;20207;-57
2022/11/18 06:16:23;;;;;;;0.60;0.60;;;;;6.30;94439.00;;;;5094541;28;20191;-57
2022/11/18 06:18:50;;;;;;;0.50;0.50;;;;;6.20;94443.00;;;;5094423;28;20210;-57
2022/11/18 06:21:17;;;;;;;0.60;0.60;;;;;6.00;94449.00;;;;5094673;28;20622;-59
2022/11/18 06:23:44;;;;;;;0.50;0.50;;;;;6.10;94449.00;;;;5076837;28;20222;-57
2022/11/18 06:26:15;;;;;;;0.53;0.53;;;;;6.10;94455.00;;;;5094255;28;20226;-57
2022/11/18 06:28:45;;;;;;;0.60;0.60;;;;;6.00;94463.00;;;;5094164;28;20195;-57
2022/11/18 06:31:11;;;;;;;0.60;0.60;;;;;6.00;94458.00;;;;5094062;28;20503;-56
2022/11/18 06:33:41;;;;;;;0.50;0.50;;;;;6.10;94462.00;;;;5076553;28;20313;-58
2022/11/18 06:36:08;;;;;;;0.50;0.50;;;;;5.90;94470.00;;;;5093633;28;20215;-57
2022/11/18 06:38:35;;;;;;;0.50;0.50;;;;;6.20;94464.00;;;;5094228;28;20193;-56
2022/11/18 06:41:02;;;;;;;0.53;0.53;;;;;6.00;94476.00;;;;5076354;28;20565;-56
2022/11/18 06:43:38;;;;;;;0.50;0.50;;;;;6.00;94474.00;;;;5076398;28;20291;-56
2022/11/18 06:48:55;;;;;;;0.60;0.60;;;;;5.90;94480.00;;;;5094018;28;20233;-56
2022/11/18 06:51:22;;;;;;;0.50;0.50;;;;;5.90;94491.00;;;;5093753;28;20213;-56
2022/11/18 06:53:49;;;;;;;0.50;0.50;;;;;5.90;94488.00;;;;5093863;28;20214;-57
2022/11/18 06:56:17;;;;;;;0.70;0.70;;;;;5.80;94494.00;;;;5094111;28;20195;-56
2022/11/18 06:58:45;;;;;;;0.70;0.70;;;;;5.90;94505.00;;;;5075964;28;20230;-57
2022/11/18 07:01:13;;;;;;;0.50;0.50;;;;;6.00;94502.00;;;;5076030;28;20786;-57
2022/11/18 07:03:41;;;;;;;0.60;0.60;;;;;5.80;94505.00;;;;5076294;28;20194;-57
2022/11/18 07:06:09;;;;;;;0.60;0.60;;;;;5.90;94512.00;;;;5093905;28;20264;-56
2022/11/18 07:08:36;;;;;;;0.67;0.67;;;;;6.00;94519.00;;;;5093873;28;20211;-61
2022/11/18 07:11:04;;;;;;;0.50;0.50;;;;;6.00;94529.00;;;;5093890;28;20246;-55
2022/11/18 07:13:33;;;;;;;0.50;0.50;;;;;6.00;94519.00;;;;5093786;28;20195;-57
2022/11/18 07:16:06;;;;;;;0.47;0.47;;;;;6.00;94524.00;;;;5075807;28;20230;-56
2022/11/18 07:18:33;;;;;;;0.60;0.60;;;;;5.90;94520.00;;;;5093608;28;20541;-57
2022/11/18 07:21:04;;;;;;;0.63;0.63;;;;;6.10;94529.00;;;;5093488;28;20191;-57
2022/11/18 07:23:31;;;;;;;0.60;0.60;;;;;6.10;94531.00;;;;5093658;28;20213;-58
2022/11/18 07:25:59;;;;;;;0.60;0.60;;;;;6.10;94540.00;;;;5093535;28;20538;-57
2022/11/18 07:28:26;;;;;;;0.57;0.57;;;;;6.20;94533.00;;;;5093380;28;20198;-61
2022/11/18 07:30:52;;;;;;;0.53;0.53;;;;;6.30;94535.00;;;;5093676;28;20619;-57
2022/11/18 07:33:20;;;;;;;0.70;0.70;;;;;6.30;94534.00;;;;5075525;28;20324;-57
2022/11/18 07:35:47;;;;;;;0.63;0.63;;;;;6.20;94539.00;;;;5075520;28;20218;-57
2022/11/18 07:38:13;;;;;;;0.60;0.60;;;;;6.20;94546.00;;;;5093244;28;20229;-57
2022/11/18 07:40:42;;;;;;;0.60;0.60;;;;;6.30;94552.00;;;;5093328;28;20202;-59
2022/11/18 07:43:12;;;;;;;0.50;0.50;;;;;6.40;94562.00;;;;5093155;28;20267;-57
2022/11/18 07:45:38;;;;;;;0.83;0.83;;;;;6.50;94552.00;;;;5093258;28;20211;-57
2022/11/18 07:48:05;;;;;;;0.40;0.40;;;;;6.40;94556.00;;;;5078549;28;20657;-57
2022/11/18 07:50:33;;;;;;;0.50;0.50;;;;;6.30;94552.00;;;;5096762;28;20221;-57
2022/11/18 07:53:00;;;;;;;1.23;0.87;;;;;6.40;94570.00;;;;5096697;28;20225;-57
2022/11/18 07:55:26;;;;;;;0.50;0.50;;;;;6.50;94567.00;;;;5096599;28;20244;-56
2022/11/18 07:57:55;;;;;;;0.50;0.50;;;;;6.40;94569.00;;;;5078846;28;20633;-57
2022/11/18 08:00:22;;;;;;;0.50;0.50;;;;;6.60;94568.00;;;;5096518;28;20193;-56
2022/11/18 08:02:51;;;;;;;0.60;0.60;;;;;6.60;94578.00;;;;5096663;28;20195;-57
2022/11/18 08:05:18;;;;;;;0.60;0.60;;;;;6.60;94576.00;;;;5096597;28;20259;-57
2022/11/18 08:07:46;;;;;;;0.50;0.50;;;;;6.70;94574.00;;;;5096570;28;20218;-57
2022/11/18 08:10:12;;;;;;;0.43;0.43;;;;;6.70;94588.00;;;;5097325;28;20193;-57
2022/11/18 08:12:39;;;;;;;0.50;0.50;;;;;6.60;94581.00;;;;5096336;28;20218;-57
2022/11/18 08:15:07;;;;;;;0.67;0.67;;;;;6.80;94583.00;;;;5096629;28;20271;-57
2022/11/18 08:17:34;;;;;;;0.50;0.50;;;;;6.80;94586.00;;;;5096539;28;20281;-57
2022/11/18 08:20:01;;;;;;;0.50;0.50;;;;;6.90;94584.00;;;;5078491;28;20210;-57
2022/11/18 08:22:27;;;;;;;0.50;0.50;;;;;6.90;94586.00;;;;5096430;28;20286;-57
2022/11/18 08:24:55;;;;;;;0.70;0.70;;;;;6.90;94588.00;;;;5096441;28;20194;-57
2022/11/18 08:27:24;;;;;;;0.50;0.50;;;;;6.90;94585.00;;;;5096138;28;20202;-57
2022/11/18 08:29:51;;;;;;;0.50;0.50;;;;;6.80;94597.00;;;;5096197;28;20679;-56
2022/11/18 08:32:20;;;;;;;0.67;0.67;;;;;6.90;94592.00;;;;5078212;28;20551;-57
2022/11/18 08:34:47;;;;;;;0.50;0.50;;;;;6.90;94605.00;;;;5096316;28;20225;-58
2022/11/18 08:37:16;;;;;;;0.50;0.50;;;;;6.80;94600.00;;;;5096216;28;20202;-57
2022/11/18 08:39:42;;;;;;;0.50;0.50;;;;;6.60;94594.00;;;;5078263;28;20268;-56
2022/11/18 08:42:10;;;;;;;0.53;0.53;;;;;6.70;94601.00;;;;5096171;28;20284;-57
2022/11/18 08:44:37;;;;;;;0.60;0.60;;;;;6.70;94599.00;;;;5095919;28;20210;-56
2022/11/18 08:47:04;;;;;;;0.50;0.50;;;;;6.70;94607.00;;;;5095758;28;20201;-57
2022/11/18 08:49:31;;;;;;;0.50;0.50;;;;;6.80;94609.00;;;;5095727;28;20210;-58
2022/11/18 08:51:58;;;;;;;0.50;0.50;;;;;6.70;94607.00;;;;5095586;28;20229;-57
2022/11/18 08:54:27;;;;;;;0.50;0.50;;;;;6.90;94609.00;;;;5096072;28;20504;-57
2022/11/18 08:56:54;;;;;;;0.40;0.40;;;;;7.00;94613.00;;;;5077818;28;20620;-59
2022/11/18 08:59:22;;;;;;;0.50;0.50;;;;;7.10;94614.00;;;;5095131;28;20205;-58
2022/11/18 09:01:48;;;;;;;0.60;0.60;;;;;7.20;94626.00;;;;5095878;28;20195;-57
2022/11/18 09:04:15;;;;;;;0.50;0.50;;;;;7.20;94620.00;;;;5095780;28;20534;-58
2022/11/18 09:06:42;;;;;;;0.50;0.50;;;;;7.20;94619.00;;;;5095740;28;20199;-56
2022/11/18 09:09:09;;;;;;;0.50;0.50;;;;;7.50;94633.00;;;;5095511;28;20218;-57
2022/11/18 09:11:39;;;;;;;0.50;0.50;;;;;7.60;94634.00;;;;5095556;28;20587;-55
2022/11/18 09:14:06;;;;;;;0.50;0.50;;;;;7.50;94632.00;;;;5095389;28;20283;-57
2022/11/18 09:16:36;;;;;;;0.50;0.50;;;;;7.30;94632.00;;;;5095506;28;20226;-57
2022/11/18 09:19:03;;;;;;;0.50;0.50;;;;;7.30;94640.00;;;;5095500;28;20190;-56
2022/11/18 09:21:30;;;;;;;0.60;0.60;;;;;7.30;94639.00;;;;5095444;28;20214;-58
2022/11/18 09:23:57;;;;;;;0.50;0.50;;;;;7.60;94643.00;;;;5095709;28;20203;-57
2022/11/18 09:26:23;;;;;;;0.50;0.50;;;;;7.70;94646.00;;;;5077527;28;20220;-57
2022/11/18 09:28:53;;;;;;;0.50;0.50;;;;;7.80;94650.00;;;;5095335;28;20198;-56
2022/11/18 09:31:20;;;;;;;0.80;0.80;;;;;8.00;94649.00;;;;5095216;28;20225;-58
2022/11/18 09:33:50;;;;;;;0.60;0.60;;;;;8.00;94644.00;;;;5095234;28;20205;-57
2022/11/18 09:36:19;;;;;;;0.50;0.50;;;;;7.90;94651.00;;;;5077221;28;20257;-56
2022/11/18 09:38:46;;;;;;;0.80;0.80;;;;;8.00;94652.00;;;;5095415;28;20296;-57
2022/11/18 09:41:30;;;;;;;0.50;0.50;;;;;8.00;94667.00;;;;5095074;28;20227;-59
2022/11/18 09:44:08;;;;;;;1.13;1.03;;;;;7.90;94664.00;;;;5095297;28;21024;-58
2022/11/18 09:46:50;;;;;;;0.50;0.50;;;;;7.90;94668.00;;;;5095362;28;20691;-57
2022/11/18 09:49:25;;;;;;;0.60;0.60;;;;;8.00;94667.00;;;;5095141;28;20214;-60
2022/11/18 09:51:53;;;;;;;0.60;0.60;;;;;8.10;94667.00;;;;5094900;28;20221;-58
2022/11/18 09:54:22;;;;;;;0.67;0.67;;;;;8.10;94672.00;;;;5094945;28;20187;-57
2022/11/18 09:56:49;;;;;;;0.60;0.60;;;;;8.20;94665.00;;;;5095060;28;20291;-59
2022/11/18 09:59:18;;;;;;;1.13;1.13;;;;;8.10;94682.00;;;;5095182;28;20198;-60
2022/11/18 10:01:49;;;;;;;0.60;0.60;;;;;8.30;94671.00;;;;5094773;28;20222;-58
2022/11/18 10:04:18;;;;;;;0.70;0.70;;;;;8.40;94672.00;;;;5094816;28;20210;-61
2022/11/18 10:06:46;;;;;;;0.53;0.53;;;;;8.50;94662.00;;;;5094656;28;20235;-58
2022/11/18 10:09:29;;;;;;;0.40;0.40;;;;;8.50;94663.00;;;;5093768;28;20205;-58
2022/11/18 10:12:13;;;;;;;0.73;0.73;;;;;8.50;94675.00;;;;5094547;28;20203;-57
2022/11/18 10:15:01;;;;;;;0.40;0.40;;;;;8.50;94670.00;;;;5095159;28;20555;-57
2022/11/18 10:17:43;;;;;;;0.50;0.50;;;;;8.60;94685.00;;;;5094650;28;20214;-58
2022/11/18 10:20:28;;;;;;;0.70;0.70;;;;;8.30;94680.00;;;;5094506;28;20187;-58
2022/11/18 10:23:02;;;;;;;0.50;0.50;;;;;8.20;94693.00;;;;5076735;28;20241;-57
2022/11/18 10:25:28;;;;;;;0.50;0.50;;;;;8.20;94683.00;;;;5094698;28;20653;-58
2022/11/18 10:27:59;;;;;;;0.73;0.73;;;;;8.30;94690.00;;;;5094398;28;20310;-57
2022/11/18 10:30:26;;;;;;;0.60;0.60;;;;;8.30;94691.00;;;;5094665;28;20213;-59
2022/11/18 10:32:56;;;;;;;0.63;0.63;;;;;8.30;94688.00;;;;5094302;28;20222;-57
2022/11/18 10:35:27;;;;;;;0.73;0.73;;;;;8.40;94695.00;;;;5094481;28;20608;-58
2022/11/18 10:38:06;;;;;;;0.50;0.50;;;;;8.40;94694.00;;;;5094186;28;20623;-58
2022/11/18 10:40:37;;;;;;;0.60;0.60;;;;;8.60;94703.00;;;;5094259;28;20274;-57
2022/11/18 10:43:04;;;;;;;0.60;0.60;;;;;8.50;94702.00;;;;5094403;28;20195;-56
2022/11/18 10:45:32;;;;;;;0.50;0.50;;;;;8.50;94698.00;;;;5094085;28;20222;-58
2022/11/18 10:48:08;;;;;;;0.73;0.73;;;;;8.60;94707.00;;;;5094300;28;20701;-57
2022/11/18 10:50:39;;;;;;;0.60;0.60;;;;;8.80;94711.00;;;;5094431;28;20272;-59
2022/11/18 10:53:29;;;;;;;0.50;0.50;;;;;9.00;94699.00;;;;5094038;28;20226;-56
2022/11/18 10:55:59;;;;;;;0.60;0.60;;;;;9.00;94709.00;;;;5094058;28;20194;-58
2022/11/18 10:58:27;;;;;;;0.67;0.67;;;;;9.30;94709.00;;;;5076124;28;20207;-58
2022/11/18 11:01:05;;;;;;;0.80;0.80;;;;;9.30;94714.00;;;;5093925;28;20195;-59
2022/11/18 11:03:35;;;;;;;0.50;0.50;;;;;9.10;94723.00;;;;5093715;28;20202;-58
2022/11/18 11:06:29;;;;;;;0.90;0.90;;;;;8.80;94732.00;;;;5093586;28;20283;-55
2022/11/18 11:09:03;;;;;;;0.60;0.60;;;;;8.80;94738.00;;;;5093654;28;20195;-60
2022/11/18 11:11:32;;;;;;;0.67;0.67;;;;;8.80;94727.00;;;;5093530;28;20195;-60
2022/11/18 11:14:10;;;;;;;0.60;0.60;;;;;8.80;94722.00;;;;5075767;28;20260;-60
2022/11/18 11:16:46;;;;;;;0.50;0.50;;;;;8.70;94725.00;;;;5093932;28;20194;-56
2022/11/18 11:19:13;;;;;;;0.93;0.73;;;;;8.60;94732.00;;;;5093743;28;20210;-56
2022/11/18 11:21:41;;;;;;;0.70;0.70;;;;;8.70;94701.00;;;;5093470;28;20186;-57
2022/11/18 11:24:11;;;;;;;1.03;1.03;;;;;9.00;94714.00;;;;5093579;28;20662;-58
2022/11/18 11:26:45;;;;;;;0.50;0.50;;;;;9.20;94715.00;;;;5093483;28;20202;-56
2022/11/18 11:29:22;;;;;;;0.60;0.60;;;;;9.30;94711.00;;;;5093663;28;20205;-56
2022/11/18 11:32:00;;;;;;;0.60;0.60;;;;;9.20;94717.00;;;;5075872;28;20259;-56
2022/11/18 11:34:36;;;;;;;0.43;0.43;;;;;9.20;94722.00;;;;5093791;28;20210;-57
2022/11/18 11:37:13;;;;;;;0.50;0.50;;;;;9.30;94718.00;;;;5093438;28;20214;-58
2022/11/18 11:40:02;;;;;;;0.80;0.80;;;;;9.30;94726.00;;;;5075717;28;20179;-55
2022/11/18 11:42:40;;;;;;;2.57;1.40;;;;;9.30;94722.00;;;;5093351;28;20270;-56
2022/11/18 11:45:18;;;;;;;0.90;0.90;;;;;10.10;94726.00;;;;5093372;28;20278;-56
2022/11/18 11:48:06;;;;;;;0.60;0.60;;;;;10.00;94722.00;;;;5075755;28;20210;-56
2022/11/18 11:50:52;;;;;;;0.50;0.50;;;;;9.40;94729.00;;;;5093299;28;20272;-57
2022/11/18 11:53:31;;;;;;;0.57;0.57;;;;;10.30;94730.00;;;;5093194;28;20261;-56
2022/11/18 11:56:07;;;;;;;0.50;0.50;;;;;10.40;94735.00;;;;5093152;28;20526;-56
2022/11/18 11:58:57;;;;;;;0.60;0.60;;;;;10.00;94744.00;;;;5093278;28;20213;-57
2022/11/18 12:01:33;;;;;;;0.63;0.63;;;;;9.90;94751.00;;;;5093345;28;20186;-56
2022/11/18 12:04:14;;;;;;;1.00;1.00;;;;;9.10;94741.00;;;;5093184;28;20232;-55
2022/11/18 12:06:44;;;;;;;0.50;0.50;;;;;9.20;94741.00;;;;5092980;28;20591;-61
2022/11/18 12:09:17;;;;;;;0.70;0.70;;;;;8.80;94753.00;;;;5093103;28;20198;-57
2022/11/18 12:11:53;;;;;;;0.50;0.50;;;;;8.40;94753.00;;;;5075004;28;20580;-55
2022/11/18 12:14:28;;;;;;;0.60;0.60;;;;;8.50;94756.00;;;;5092955;28;20201;-56
2022/11/18 12:17:01;;;;;;;0.80;0.80;;;;;8.40;94756.00;;;;5092902;28;20214;-56
2022/11/18 12:19:28;;;;;;;0.50;0.50;;;;;8.80;94769.00;;;;5075319;28;20751;-57
2022/11/18 12:21:59;;;;;;;0.60;0.60;;;;;9.20;94754.00;;;;5093104;28;20195;-57
2022/11/18 12:24:35;;;;;;;1.30;1.20;;;;;9.60;94754.00;;;;5092779;28;20336;-56
2022/11/18 12:27:05;;;;;;;0.47;0.47;;;;;9.70;94758.00;;;;5075148;28;20198;-56
2022/11/18 12:29:42;;;;;;;0.50;0.50;;;;;9.70;94744.00;;;;5092799;28;20607;-57
2022/11/18 12:32:25;;;;;;;0.60;0.60;;;;;10.00;94748.00;;;;5092686;28;20214;-56
2022/11/18 12:35:01;;;;;;;0.60;0.60;;;;;10.40;94756.00;;;;5094396;28;20226;-56
2022/11/18 12:37:42;;;;;;;0.50;0.50;;;;;10.10;94758.00;;;;5096153;28;20232;-55
2022/11/18 12:40:29;;;;;;;0.93;0.93;;;;;10.30;94754.00;;;;5096062;28;20199;-56
2022/11/18 12:45:57;;;;;;;1.00;1.00;;;;;12.60;94684.00;;;;5095962;28;20717;-56
2022/11/18 12:48:32;;;;;;;0.40;0.40;;;;;13.70;94761.00;;;;5095786;28;20229;-56
2022/11/18 12:51:09;;;;;;;0.53;0.53;;;;;12.00;94761.00;;;;5095889;28;20210;-56
2022/11/18 12:53:38;;;;;;;0.50;0.50;;;;;10.80;94767.00;;;;5095803;28;20249;-55
2022/11/18 12:56:22;;;;;;;1.37;1.27;;;;;10.40;94758.00;;;;5095879;28;20221;-56
2022/11/18 12:58:51;;;;;;;0.73;0.73;;;;;10.40;94772.00;;;;5078147;28;20222;-57
2022/11/18 13:01:20;;;;;;;0.50;0.50;;;;;10.40;94763.00;;;;5095809;28;20222;-56
2022/11/18 13:03:47;;;;;;;0.50;0.50;;;;;10.30;94785.00;;;;5095964;28;20252;-55